Latest Weather Observations for Lismore Airport

IDN60801

Issued at 7:02 am EST Sunday 30 April 2017 (issued every 30 minutes, with the page automatically refreshed every 10 minutes)

About weather observations | Map of weather stations | Latest weather observations for NSW | Other Formats
Station Details ID: 058214 Name: LISMORE AIRPORT AWS Lat: -28.83 Lon: 153.26 Height: 9.21 m
Data from the previous 72 hours. | See also: Recent months at Lismore Airport
Date/Time
EST
Temp
°C
App
Temp
°C
Dew
Point
°C
Rel
Hum
%
Delta-T
°C
Wind Press
QNH
hPa
Press
MSL
hPa
Rain since
9am
mm
Dir  Spd
km/h
Gust
km/h
Spd
kts
Gust
kts
30/07:00am 11.9 12.0 11.6 98 0.2 N 2 7 1 4 1021.1 1021.1 0.0
30/06:30am 11.4 11.4 11.1 98 0.2 E 2 6 1 3 1020.8 1020.8 0.0
30/06:00am 11.0 11.2 10.7 98 0.2 CALM 0 0 0 0 1020.5 1020.5 0.0
30/05:30am 10.1 10.0 9.6 97 0.2 CALM 0 0 0 0 1020.2 1020.2 0.0
30/05:18am 9.9 9.0 9.4 97 0.2 NW 4 9 2 5 1020.1 1020.1 0.0
30/05:00am 10.8 8.9 10.5 98 0.2 N 11 13 6 7 1019.9 1019.9 0.0
30/04:30am 10.7 8.8 10.4 98 0.2 N 11 15 6 8 1019.6 1019.6 0.0
30/04:00am 11.1 8.9 10.8 98 0.2 N 13 19 7 10 1019.5 1019.5 0.0
30/03:30am 10.4 9.1 10.1 98 0.2 N 7 11 4 6 1019.5 1019.5 0.0
30/03:00am 10.7 10.5 10.4 98 0.2 NNE 2 9 1 5 1019.4 1019.4 0.0
30/02:30am 10.0 9.9 9.5 97 0.2 CALM 0 0 0 0 1019.5 1019.5 0.0
30/02:00am 9.4 8.3 8.5 94 0.4 NNW 4 7 2 4 1019.6 1019.6 0.0
30/01:30am 11.3 10.2 10.8 97 0.3 N 7 7 4 4 1019.9 1019.9 0.0
30/01:03am 11.0 9.9 9.9 93 0.6 N 6 7 3 4 1019.8 1019.8 0.0
30/01:00am 11.4 10.5 10.6 95 0.4 N 6 7 3 4 1019.8 1019.8 0.0
30/12:30am 12.3 11.1 11.7 96 0.3 N 9 13 5 7 1019.8 1019.8 0.0
30/12:00am 12.0 10.7 11.2 95 0.4 N 9 11 5 6 1019.9 1019.9 0.0
 
Date/Time
EST
Temp
°C
App
Temp
°C
Dew
Point
°C
Rel
Hum
%
Delta-T
°C
Wind Press
QNH
hPa
Press
MSL
hPa
Rain since
9am
mm
Dir  Spd
km/h
Gust
km/h
Spd
kts
Gust
kts
29/11:30pm 12.5 11.9 11.7 95 0.4 NNW 6 9 3 5 1019.8 1019.8 0.0
29/11:00pm 12.7 11.2 11.9 95 0.4 N 11 15 6 8 1019.8 1019.8 0.0
29/10:30pm 12.8 11.7 12.0 95 0.4 N 9 11 5 6 1019.7 1019.7 0.0
29/10:00pm 12.8 12.6 11.9 94 0.5 N 4 9 2 5 1019.9 1019.9 0.0
29/09:30pm 13.6 12.4 12.8 95 0.4 N 11 13 6 7 1019.8 1019.8 0.0
29/09:00pm 13.6 12.4 12.8 95 0.4 N 11 13 6 7 1019.7 1019.7 0.0
29/08:30pm 13.2 12.5 12.1 93 0.6 N 7 9 4 5 1019.5 1019.5 0.0
29/08:00pm 13.6 12.3 12.5 93 0.6 N 11 11 6 6 1019.3 1019.3 0.0
29/07:30pm 13.6 14.3 12.2 91 0.8 CALM 0 0 0 0 1019.4 1019.4 0.0
29/07:00pm 14.6 15.5 12.8 89 1.0 CALM 0 0 0 0 1019.2 1019.2 0.0
29/06:30pm 14.8 15.4 11.9 83 1.6 CALM 0 0 0 0 1019.0 1019.0 0.0
29/06:00pm 16.8 17.8 13.3 80 2.0 CALM 0 0 0 0 1018.6 1018.6 0.0
29/05:30pm 18.6 18.4 13.7 73 2.8 SE 7 11 4 6 1018.4 1018.4 0.0
29/05:00pm 20.0 19.6 14.1 69 3.4 ESE 9 11 5 6 1018.1 1018.1 0.0
29/04:30pm 21.3 20.5 14.0 63 4.2 SE 11 17 6 9 1017.9 1017.9 0.0
29/04:00pm 21.5 21.4 13.9 62 4.4 ESE 7 9 4 5 1017.7 1017.7 0.0
29/03:30pm 21.5 21.0 13.9 62 4.4 ESE 9 13 5 7 1017.6 1017.6 0.0
29/03:00pm 22.8 21.4 13.3 55 5.5 ESE 13 17 7 9 1017.7 1017.7 0.0
29/02:30pm 24.1 22.8 12.4 48 6.7 WSW 11 19 6 10 1017.8 1017.8 0.0
29/02:00pm 23.9 22.7 12.8 49 6.4 SSW 11 19 6 10 1017.8 1017.8 0.0
29/01:30pm 23.9 23.5 12.5 49 6.5 WSW 6 9 3 5 1017.8 1017.8 0.0
29/01:00pm 23.4 21.2 12.1 49 6.4 S 15 20 8 11 1018.2 1018.2 0.0
29/12:30pm 23.1 22.0 13.0 53 5.8 SSW 11 20 6 11 1018.7 1018.7 0.0
29/12:00pm 22.4 20.9 11.8 51 5.9 SSE 11 20 6 11 1019.1 1019.1 0.0
29/11:30am 22.2 19.6 11.9 52 5.8 SSW 17 24 9 13 1019.6 1019.6 0.0
29/11:00am 22.4 19.6 12.6 54 5.6 S 19 28 10 15 1020.0 1020.0 0.0
29/10:30am 21.2 18.0 11.2 53 5.5 SW 19 26 10 14 1020.3 1020.3 0.0
29/10:00am 21.1 18.1 10.6 51 5.7 SSW 17 22 9 12 1020.5 1020.5 0.0
29/09:30am 20.3 16.9 9.2 49 5.9 SW 17 24 9 13 1020.6 1020.6 0.0
29/09:00am 19.4 17.0 9.9 54 5.1 WSW 13 20 7 11 1020.5 1020.5 0.0
29/08:30am 17.3 16.6 11.3 68 3.2 NNE 6 9 3 5 1020.6 1020.6 0.0
29/08:00am 15.5 15.4 10.9 74 2.4 NNW 2 7 1 4 1020.3 1020.3 0.0
29/07:30am 13.1 11.6 10.6 85 1.3 N 9 13 5 7 1020.0 1020.0 0.0
29/07:00am 11.6 9.9 10.0 90 0.8 N 9 11 5 6 1019.7 1019.7 0.0
29/06:30am 9.3 8.9 8.4 94 0.4 CALM 0 9 0 5 1019.2 1019.2 0.0
29/06:00am 8.6 7.5 7.1 90 0.7 NNW 2 7 1 4 1019.0 1019.0 0.0
29/05:30am 10.1 9.1 8.9 92 0.6 N 4 9 2 5 1018.5 1018.5 0.0
29/05:00am 9.3 6.8 8.2 93 0.5 N 11 11 6 6 1018.5 1018.5 0.0
29/04:30am 10.0 9.6 8.4 90 0.8 CALM 0 0 0 0 1018.4 1018.4 0.0
29/04:00am 10.9 9.5 8.7 86 1.1 ESE 6 7 3 4 1018.1 1018.1 0.0
29/03:30am 11.0 10.5 9.4 90 0.8 SE 2 7 1 4 1018.0 1018.0 0.0
29/03:00am 11.1 10.9 9.2 88 0.9 CALM 0 0 0 0 1018.1 1018.1 0.0
29/02:30am 12.6 12.8 10.5 87 1.1 CALM 0 6 0 3 1018.1 1018.1 0.0
29/02:00am 12.4 12.5 10.0 85 1.2 CALM 0 0 0 0 1018.2 1018.2 0.0
29/01:30am 13.8 13.4 9.8 77 2.1 SSE 2 6 1 3 1018.4 1018.4 0.0
29/01:00am 15.0 13.3 9.8 71 2.7 SSW 9 17 5 9 1018.5 1018.5 0.0
29/12:30am 15.7 12.8 9.8 68 3.1 SSW 15 20 8 11 1018.7 1018.7 0.0
29/12:00am 17.0 13.9 10.4 65 3.5 SSW 17 24 9 13 1018.8 1018.8 0.0
 
Date/Time
EST
Temp
°C
App
Temp
°C
Dew
Point
°C
Rel
Hum
%
Delta-T
°C
Wind Press
QNH
hPa
Press
MSL
hPa
Rain since
9am
mm
Dir  Spd
km/h
Gust
km/h
Spd
kts
Gust
kts
28/11:30pm 17.3 14.4 11.1 67 3.3 SSW 17 20 9 11 1018.8 1018.8 0.0
28/11:00pm 16.9 15.3 11.6 71 2.9 SSW 11 17 6 9 1018.9 1018.9 0.0
28/10:30pm 17.5 16.3 11.5 68 3.3 S 9 19 5 10 1019.2 1019.2 0.0
28/10:00pm 18.0 15.7 11.8 67 3.4 SSW 15 20 8 11 1019.2 1019.2 0.0
28/09:30pm 17.9 15.3 11.9 68 3.3 SW 17 26 9 14 1019.0 1019.0 0.0
28/09:00pm 18.0 15.5 12.2 69 3.2 SSW 17 20 9 11 1018.8 1018.8 0.0
28/08:30pm 17.9 14.8 12.1 69 3.2 SSW 20 28 11 15 1018.7 1018.7 0.0
28/08:00pm 17.9 15.8 12.4 70 3.0 SSW 15 20 8 11 1018.6 1018.6 0.0
28/07:30pm 18.3 15.7 12.1 67 3.4 SSW 17 26 9 14 1018.4 1018.4 0.0
28/07:00pm 18.4 15.6 12.6 69 3.2 SSW 19 28 10 15 1018.3 1018.3 0.0
28/06:30pm 18.8 16.0 12.5 67 3.5 SSW 19 26 10 14 1017.9 1017.9 0.0
28/06:00pm 18.9 15.9 12.6 67 3.5 S 20 30 11 16 1017.7 1017.7 0.0
28/05:30pm 19.4 16.5 12.9 66 3.7 S 20 35 11 19 1017.2 1017.2 0.0
28/05:00pm 19.4 16.8 13.1 67 3.6 S 19 26 10 14 1016.7 1016.7 0.0
28/04:30pm 19.6 16.4 13.1 66 3.7 S 22 32 12 17 1016.5 1016.5 0.0
28/04:00pm 20.0 16.9 13.5 66 3.7 SSW 22 32 12 17 1016.1 1016.1 0.0
28/03:30pm 19.9 15.3 13.4 66 3.7 S 30 39 16 21 1016.0 1016.0 0.0
28/03:00pm 20.5 16.6 13.2 63 4.2 S 26 37 14 20 1015.9 1015.9 0.0
28/02:30pm 20.9 15.9 13.4 62 4.3 S 32 39 17 21 1015.6 1015.6 0.0
28/02:02pm 20.9 15.7 12.8 60 4.6 S 32 54 17 29 1015.5 1015.5 0.0
28/02:00pm 21.3 16.6 13.2 60 4.6 S 30 43 16 23 1015.4 1015.4 0.0
28/01:30pm 21.2 17.3 13.4 61 4.5 S 26 37 14 20 1015.4 1015.4 0.0
28/01:00pm 21.0 17.0 12.9 60 4.6 S 26 41 14 22 1015.5 1015.5 0.0
28/12:30pm 21.1 16.0 13.0 60 4.6 SSW 32 43 17 23 1015.8 1015.8 0.0
28/12:00pm 20.6 16.4 12.3 59 4.7 SSW 26 35 14 19 1016.2 1016.2 0.0
28/11:30am 20.7 16.4 12.1 58 4.8 SSW 26 39 14 21 1016.6 1016.6 0.0
28/11:00am 20.5 16.4 11.4 56 5.0 SSW 24 30 13 16 1017.1 1017.1 0.0
28/10:30am 19.4 15.1 10.7 57 4.7 SW 24 35 13 19 1017.4 1017.4 0.0
28/10:00am 20.0 17.1 11.0 56 4.9 SW 17 24 9 13 1017.4 1017.4 0.0
28/09:30am 18.6 16.2 9.9 57 4.6 SW 13 19 7 10 1017.6 1017.6 0.0
28/09:00am 17.9 16.5 11.0 64 3.7 WNW 9 15 5 8 1017.9 1017.9 0.0
28/08:30am 15.4 14.8 12.2 81 1.7 NNW 7 11 4 6 1018.0 1018.0 0.0
28/08:00am 14.0 13.3 11.3 84 1.4 NNW 6 11 3 6 1017.6 1017.6 0.0
28/07:30am 13.1 11.6 10.6 85 1.3 NNW 9 13 5 7 1017.2 1017.2 0.0
28/07:00am 11.9 10.3 10.3 90 0.8 NNW 9 13 5 7 1016.8 1016.8 0.0
28/06:30am 10.5 8.7 9.3 92 0.6 N 9 13 5 7 1016.2 1016.2 0.0
28/06:00am 10.2 8.8 9.0 92 0.6 NNW 6 9 3 5 1015.7 1015.7 0.0
28/05:30am 10.1 9.1 9.0 93 0.5 N 4 13 2 7 1015.3 1015.3 0.0
28/05:00am 9.4 8.9 8.0 91 0.7 CALM 0 0 0 0 1015.1 1015.1 0.0
28/04:30am 10.9 10.8 9.5 91 0.7 CALM 0 0 0 0 1014.8 1014.8 0.0
28/04:00am 10.9 10.7 9.2 89 0.8 CALM 0 0 0 0 1014.4 1014.4 0.0
28/03:30am 11.5 10.0 9.2 86 1.2 NNW 7 13 4 7 1014.4 1014.4 0.0
28/03:00am 12.0 12.1 10.1 88 1.0 CALM 0 0 0 0 1014.6 1014.6 0.0
28/02:30am 13.0 11.8 9.4 79 1.8 NW 6 11 3 6 1015.0 1015.0 0.0
28/02:00am 14.7 13.4 10.1 74 2.4 SW 7 15 4 8 1015.1 1015.1 0.0
28/01:30am 14.3 12.8 10.7 79 1.9 SW 9 15 5 8 1015.2 1015.2 0.0
28/01:00am 14.6 12.1 11.0 79 1.9 SW 15 20 8 11 1015.6 1015.6 0.0
28/12:30am 14.6 12.1 11.0 79 1.9 SW 15 20 8 11 1015.8 1015.8 0.0
28/12:00am 14.9 12.5 11.3 79 1.9 SW 15 17 8 9 1016.0 1016.0 0.0
 
Date/Time
EST
Temp
°C
App
Temp
°C
Dew
Point
°C
Rel
Hum
%
Delta-T
°C
Wind Press
QNH
hPa
Press
MSL
hPa
Rain since
9am
mm
Dir  Spd
km/h
Gust
km/h
Spd
kts
Gust
kts
27/11:30pm 15.3 12.5 11.3 77 2.1 SSW 17 24 9 13 1016.0 1016.0 0.0
27/11:00pm 15.5 12.4 11.7 78 2.1 SSW 19 26 10 14 1016.0 1016.0 0.0
27/10:30pm 14.0 13.9 12.2 89 1.0 N 4 9 2 5 1015.9 1015.9 0.0
27/10:00pm 14.0 14.6 12.0 88 1.1 CALM 0 0 0 0 1015.9 1015.9 0.0
27/09:30pm 14.1 13.6 12.0 87 1.1 N 6 9 3 5 1015.7 1015.7 0.0
27/09:00pm 14.7 13.9 11.8 83 1.6 WNW 7 11 4 6 1015.7 1015.7 0.0
27/08:30pm 14.3 13.2 11.8 85 1.3 NNW 9 13 5 7 1015.3 1015.3 0.0
27/08:00pm 14.0 13.2 11.7 86 1.2 NW 7 9 4 5 1015.2 1015.2 0.0
27/07:30pm 14.7 14.2 12.2 85 1.4 N 6 9 3 5 1014.8 1014.8 0.0
27/07:00pm 14.6 14.0 11.6 82 1.6 NW 6 9 3 5 1014.4 1014.4 0.0
27/06:30pm 14.8 14.5 11.6 81 1.7 SW 4 7 2 4 1014.3 1014.3 0.0
27/06:00pm 16.4 15.8 11.6 73 2.6 S 6 7 3 4 1013.9 1013.9 0.0
27/05:30pm 17.2 16.0 11.5 69 3.1 S 9 11 5 6 1013.8 1013.8 0.0
27/05:00pm 18.6 16.6 11.4 63 3.9 S 13 15 7 8 1013.4 1013.4 0.0
27/04:30pm 19.5 16.9 10.8 57 4.7 S 15 19 8 10 1013.2 1013.2 0.0
27/04:00pm 19.6 17.0 10.6 56 4.9 S 15 19 8 10 1012.9 1012.9 0.0
27/03:30pm 20.6 18.6 11.5 56 5.0 SSW 13 20 7 11 1012.5 1012.5 0.0
27/03:00pm 19.9 18.0 10.6 55 5.0 S 11 17 6 9 1012.2 1012.2 0.0
27/02:30pm 20.3 17.8 9.8 51 5.6 SSW 13 20 7 11 1012.3 1012.3 0.0
27/02:00pm 21.1 18.2 10.9 52 5.6 SSE 17 22 9 12 1012.2 1012.2 0.0
27/01:30pm 20.4 17.8 9.3 49 5.9 SSW 13 19 7 10 1012.3 1012.3 0.0
27/01:00pm 21.0 18.4 9.3 47 6.2 SSW 13 20 7 11 1012.5 1012.5 0.0
27/12:30pm 20.3 18.4 8.9 48 6.0 S 9 15 5 8 1012.7 1012.7 0.0
27/12:00pm 20.3 18.8 9.2 49 5.9 SE 7 17 4 9 1013.1 1013.1 0.0
27/11:30am 19.7 17.6 8.4 48 5.9 SSW 9 17 5 9 1013.6 1013.6 0.0
27/11:00am 19.1 17.0 8.1 49 5.7 SW 9 17 5 9 1014.0 1014.0 0.0
27/10:30am 18.8 16.2 7.6 48 5.7 S 11 20 6 11 1014.1 1014.1 0.0
27/10:00am 18.0 14.4 4.9 42 6.3 SW 13 20 7 11 1014.0 1014.0 0.0
27/09:30am 17.1 14.2 4.8 44 5.8 WSW 9 15 5 8 1014.2 1014.2 0.0
27/09:00am 16.7 14.3 4.1 43 5.9 WNW 6 15 3 8 1014.4 1014.4 2.0
27/08:30am 16.1 12.3 6.0 51 4.9 W 15 20 8 11 1014.0 1014.0 2.0
27/08:00am 14.7 11.9 6.8 59 3.8 N 11 13 6 7 1013.7 1013.7 2.0
27/07:30am 14.3 11.2 5.4 55 4.2 W 11 17 6 9 1013.2 1013.2 2.0

Other Formats:

Comma delimited format used in spreadsheet applications
http://www.bom.gov.au/fwo/IDN60801/IDN60801.94572.axf

JavaScript Object Notation format (JSON) in row-major order
http://www.bom.gov.au/fwo/IDN60801/IDN60801.94572.json